Time;durP1;ratioP1;P1;durP2;ratioP2;P2;SDS_P1;SDS_P2;PMS_P1;PMS_P2;Temp;Humidity;BMP_temperature;BMP_pressure;BME280_temperature;BME280_humidity;BME280_pressure;Samples;Min_cycle;Max_cycle;Signal;HPM_P1;HPM_P2
2021/09/29 00:02:24;;;;;;;;;;;14.50;99.90;;;;;;5055099;28;19959;-74
2021/09/29 00:04:49;;;;;;;;;;;14.50;99.90;;;;;;5058651;28;19912;-74
2021/09/29 00:07:16;;;;;;;;;;;14.50;99.90;;;;;;5056623;28;19913;-74
2021/09/29 00:09:42;;;;;;;;;;;14.50;99.90;;;;;;5070052;28;20372;-73
2021/09/29 00:12:07;;;;;;;;;;;14.50;99.90;;;;;;5054700;28;19955;-73
2021/09/29 00:14:33;;;;;;;;;;;14.60;99.90;;;;;;5054798;28;20374;-73
2021/09/29 00:16:58;;;;;;;;;;;14.50;99.90;;;;;;5053981;28;19935;-73
2021/09/29 00:19:24;;;;;;;;;;;14.60;99.90;;;;;;5095662;28;19920;-73
2021/09/29 00:21:49;;;;;;;;;;;14.60;99.90;;;;;;5053835;28;20054;-73
2021/09/29 00:24:15;;;;;;;;;;;14.50;99.90;;;;;;5053227;28;19913;-74
2021/09/29 00:26:40;;;;;;;;;;;14.50;99.90;;;;;;5054337;28;19956;-73
2021/09/29 00:29:06;;;;;;;;;;;14.50;99.90;;;;;;5086207;28;20281;-73
2021/09/29 00:34:43;;;;;;;;;;;14.40;99.90;;;;;;5053643;28;19996;-73
2021/09/29 00:36:45;;;;;;;;;;;14.40;99.90;;;;;;5041776;28;19940;-74
2021/09/29 00:39:11;;;;;;;;;;;14.50;99.90;;;;;;5053812;28;20396;-73
2021/09/29 00:41:37;;;;;;;;;;;14.50;99.90;;;;;;5053918;28;19913;-73
2021/09/29 00:44:03;;;;;;;;;;;14.40;99.90;;;;;;5054241;28;19921;-73
2021/09/29 00:46:29;;;;;;;;;;;14.40;99.90;;;;;;5053779;28;19913;-74
2021/09/29 00:48:55;;;;;;;;;;;14.40;99.90;;;;;;5052799;28;19966;-73
2021/09/29 00:51:20;;;;;;;;;;;14.40;99.90;;;;;;5054286;28;19944;-73
2021/09/29 00:53:48;;;;;;;;;;;14.40;99.90;;;;;;5052936;28;19919;-75
2021/09/29 00:56:13;;;;;;;;;;;14.40;99.90;;;;;;5052672;28;19913;-74
2021/09/29 00:58:39;;;;;;;;;;;14.40;99.90;;;;;;5052243;28;19919;-73
2021/09/29 01:01:04;;;;;;;;;;;14.30;99.90;;;;;;5084817;28;19921;-73
2021/09/29 01:03:30;;;;;;;;;;;14.30;99.90;;;;;;5053882;28;19959;-74
2021/09/29 01:06:05;;;;;;;;;;;14.30;99.90;;;;;;5062606;28;20074;-73
2021/09/29 01:08:37;;;;;;;;;;;14.30;99.90;;;;;;5053539;28;19913;-74
2021/09/29 01:11:09;;;;;;;;;;;14.30;99.90;;;;;;5051471;28;19919;-74
2021/09/29 01:13:53;;;;;;;;;;;14.30;99.90;;;;;;5040679;28;19912;-74
2021/09/29 01:16:19;;;;;;;;;;;14.40;99.90;;;;;;5053321;28;20011;-74
2021/09/29 01:18:50;;;;;;;;;;;14.40;99.90;;;;;;5051231;28;20000;-74
2021/09/29 01:21:17;;;;;;;;;;;14.40;99.90;;;;;;5065924;28;19921;-74
2021/09/29 01:23:42;;;;;;;;;;;14.40;99.90;;;;;;5045072;28;20007;-73
2021/09/29 01:26:27;;;;;;;;;;;14.40;99.90;;;;;;5068445;28;20000;-74
2021/09/29 01:28:55;;;;;;;;;;;14.40;99.90;;;;;;5053248;28;19916;-74
2021/09/29 01:31:21;;;;;;;;;;;14.30;99.90;;;;;;5046962;28;19920;-74
2021/09/29 01:33:47;;;;;;;;;;;14.30;99.90;;;;;;5053117;28;20377;-74
2021/09/29 01:36:13;;;;;;;;;;;14.30;99.90;;;;;;5053511;28;19924;-74
2021/09/29 01:38:41;;;;;;;;;;;14.30;99.90;;;;;;5069369;28;19919;-74
2021/09/29 01:41:07;;;;;;;;;;;14.30;99.90;;;;;;5052472;28;19917;-74
2021/09/29 01:43:33;;;;;;;;;;;14.30;99.90;;;;;;5084973;28;19935;-73
2021/09/29 01:45:58;;;;;;;;;;;14.30;99.90;;;;;;5053040;28;19912;-74
2021/09/29 01:48:24;;;;;;;;;;;14.30;99.90;;;;;;5054520;28;20343;-73
2021/09/29 01:50:52;;;;;;;;;;;14.30;99.90;;;;;;5053470;28;19920;-74
2021/09/29 01:53:18;;;;;;;;;;;14.30;99.90;;;;;;5085679;28;19975;-74
2021/09/29 01:55:44;;;;;;;;;;;14.30;99.90;;;;;;5053537;28;19978;-74
2021/09/29 01:58:09;;;;;;;;;;;14.30;99.90;;;;;;5073557;28;19913;-74
2021/09/29 02:00:36;;;;;;;;;;;14.30;99.90;;;;;;5100843;28;20296;-74
2021/09/29 02:03:01;;;;;;;;;;;14.30;99.90;;;;;;5084803;28;19947;-74
2021/09/29 02:05:29;;;;;;;;;;;14.30;99.90;;;;;;5070247;28;19912;-73
2021/09/29 02:07:55;;;;;;;;;;;14.20;99.90;;;;;;5069879;28;19913;-73
2021/09/29 02:10:20;;;;;;;;;;;14.20;99.90;;;;;;5062042;28;19985;-72
2021/09/29 02:12:46;;;;;;;;;;;14.20;99.90;;;;;;5052741;28;19948;-74
2021/09/29 02:15:11;;;;;;;;;;;14.20;99.90;;;;;;5067199;28;19920;-73
2021/09/29 02:17:37;;;;;;;;;;;14.20;99.90;;;;;;5065181;28;19928;-73
2021/09/29 02:20:03;;;;;;;;;;;14.20;99.90;;;;;;5067228;28;19927;-73
2021/09/29 02:22:29;;;;;;;;;;;14.20;99.90;;;;;;5075973;28;19917;-75
2021/09/29 02:24:54;;;;;;;;;;;14.20;99.90;;;;;;5076647;28;19955;-74
2021/09/29 02:27:20;;;;;;;;;;;14.20;99.90;;;;;;5076622;28;19969;-74
2021/09/29 02:29:45;;;;;;;;;;;14.30;99.90;;;;;;5073665;28;19909;-74
2021/09/29 02:32:11;;;;;;;;;;;14.20;99.90;;;;;;5076103;28;19901;-75
2021/09/29 02:34:36;;;;;;;;;;;14.20;99.90;;;;;;5075901;28;19911;-74
2021/09/29 02:37:02;;;;;;;;;;;14.20;99.90;;;;;;5076603;28;19916;-75
2021/09/29 02:39:27;;;;;;;;;;;14.20;99.90;;;;;;5092705;28;19930;-75
2021/09/29 02:41:53;;;;;;;;;;;14.20;99.90;;;;;;5081491;28;19924;-74
2021/09/29 02:44:18;;;;;;;;;;;14.30;99.90;;;;;;5071983;28;20376;-74
2021/09/29 02:46:44;;;;;;;;;;;14.30;99.90;;;;;;5057822;28;19913;-74
2021/09/29 02:49:10;;;;;;;;;;;14.30;99.90;;;;;;5092582;28;20258;-74
2021/09/29 02:51:36;;;;;;;;;;;14.30;99.90;;;;;;5058157;28;19908;-74
2021/09/29 02:54:02;;;;;;;;;;;14.20;99.90;;;;;;5058163;28;19942;-75
2021/09/29 02:56:28;;;;;;;;;;;14.20;99.90;;;;;;5055479;28;19912;-75
2021/09/29 02:58:54;;;;;;;;;;;14.20;99.90;;;;;;5057471;28;19966;-75
2021/09/29 03:01:20;;;;;;;;;;;14.20;99.90;;;;;;5038524;28;20363;-73
2021/09/29 03:03:45;;;;;;;;;;;14.30;99.90;;;;;;5070340;28;19982;-74
2021/09/29 03:06:11;;;;;;;;;;;14.30;99.90;;;;;;5053469;28;19913;-74
2021/09/29 03:08:36;;;;;;;;;;;14.30;99.90;;;;;;5071011;28;19909;-74
2021/09/29 03:11:02;;;;;;;;;;;14.20;99.90;;;;;;5056113;28;20399;-74
2021/09/29 03:13:27;;;;;;;;;;;14.20;99.90;;;;;;5055795;28;19908;-74
2021/09/29 03:15:53;;;;;;;;;;;14.20;99.90;;;;;;5044952;28;19967;-73
2021/09/29 03:18:18;;;;;;;;;;;14.20;99.90;;;;;;5070986;28;19921;-73
2021/09/29 03:20:44;;;;;;;;;;;14.20;99.90;;;;;;5054069;28;19921;-73
2021/09/29 03:23:09;;;;;;;;;;;14.20;99.90;;;;;;5055190;28;19916;-74
2021/09/29 03:25:35;;;;;;;;;;;14.20;99.90;;;;;;5054324;28;21388;-74
2021/09/29 03:28:00;;;;;;;;;;;14.30;99.90;;;;;;5055826;28;19935;-73
2021/09/29 03:30:26;;;;;;;;;;;14.30;99.90;;;;;;5055853;28;20270;-73
2021/09/29 03:32:52;;;;;;;;;;;14.40;99.90;;;;;;5065440;28;19952;-74
2021/09/29 03:35:18;;;;;;;;;;;14.40;99.90;;;;;;5051097;28;19916;-73
2021/09/29 03:37:43;;;;;;;;;;;14.30;99.90;;;;;;5063440;28;20004;-74
2021/09/29 03:40:10;;;;;;;;;;;14.30;99.90;;;;;;5054912;28;20047;-74
2021/09/29 03:42:35;;;;;;;;;;;14.30;99.90;;;;;;5087284;28;20014;-73
2021/09/29 03:45:02;;;;;;;;;;;14.30;99.90;;;;;;5054537;28;19913;-73
2021/09/29 03:47:27;;;;;;;;;;;14.20;99.90;;;;;;5055153;28;19912;-73
2021/09/29 03:49:53;;;;;;;;;;;14.20;99.90;;;;;;5055226;28;19915;-73
2021/09/29 03:52:18;;;;;;;;;;;14.20;99.90;;;;;;5054772;28;20010;-73
2021/09/29 03:54:44;;;;;;;;;;;14.20;99.90;;;;;;5054137;28;19908;-73
2021/09/29 03:57:09;;;;;;;;;;;14.20;99.90;;;;;;5052751;28;19919;-73
2021/09/29 03:59:35;;;;;;;;;;;14.20;99.90;;;;;;5054936;28;20384;-73
2021/09/29 04:02:00;;;;;;;;;;;14.20;99.90;;;;;;5069519;28;19949;-73
2021/09/29 04:04:26;;;;;;;;;;;14.30;99.90;;;;;;5046207;28;19920;-73
2021/09/29 04:06:52;;;;;;;;;;;14.20;99.90;;;;;;5054424;28;19974;-73
2021/09/29 04:09:17;;;;;;;;;;;14.30;99.90;;;;;;5054073;28;19909;-73
2021/09/29 04:11:43;;;;;;;;;;;14.20;99.90;;;;;;5055017;28;19917;-74
2021/09/29 04:14:08;;;;;;;;;;;14.30;99.90;;;;;;5052726;28;19909;-73
2021/09/29 04:16:34;;;;;;;;;;;14.20;99.90;;;;;;5054758;28;19919;-73
2021/09/29 04:19:00;;;;;;;;;;;14.20;99.90;;;;;;5052772;28;19917;-73
2021/09/29 04:21:25;;;;;;;;;;;14.20;99.90;;;;;;5069334;28;19924;-73
2021/09/29 04:23:51;;;;;;;;;;;14.20;99.90;;;;;;5053184;28;19908;-73
2021/09/29 04:26:16;;;;;;;;;;;14.20;99.90;;;;;;5054264;28;19944;-73
2021/09/29 04:28:42;;;;;;;;;;;14.10;99.90;;;;;;5054282;28;20456;-73
2021/09/29 04:31:08;;;;;;;;;;;14.20;99.90;;;;;;5069224;28;19915;-73
2021/09/29 04:33:34;;;;;;;;;;;14.20;99.90;;;;;;5052714;28;19913;-74
2021/09/29 04:35:59;;;;;;;;;;;14.10;99.90;;;;;;5054376;28;19908;-74
2021/09/29 04:38:25;;;;;;;;;;;14.10;99.90;;;;;;5054276;28;20266;-75
2021/09/29 04:40:50;;;;;;;;;;;14.00;99.90;;;;;;5085897;28;19924;-74
2021/09/29 04:43:16;;;;;;;;;;;14.00;99.90;;;;;;5053556;28;19943;-74
2021/09/29 04:45:42;;;;;;;;;;;13.90;99.90;;;;;;5053437;28;19913;-75
2021/09/29 04:48:08;;;;;;;;;;;13.90;99.90;;;;;;5054267;28;20323;-73
2021/09/29 04:50:34;;;;;;;;;;;13.90;99.90;;;;;;5085814;28;19921;-74
2021/09/29 04:53:01;;;;;;;;;;;13.90;99.90;;;;;;5052971;28;20348;-74
2021/09/29 04:55:28;;;;;;;;;;;13.90;99.90;;;;;;5053687;28;19913;-74
2021/09/29 04:57:54;;;;;;;;;;;13.90;99.90;;;;;;5054278;28;20299;-73
2021/09/29 05:00:19;;;;;;;;;;;13.90;99.90;;;;;;5054059;28;20004;-74
2021/09/29 05:02:45;;;;;;;;;;;13.90;99.90;;;;;;5065493;28;19913;-73
2021/09/29 05:05:11;;;;;;;;;;;13.90;99.90;;;;;;5049597;28;19920;-74
2021/09/29 05:07:39;;;;;;;;;;;13.90;99.90;;;;;;5053100;28;19912;-74
2021/09/29 05:10:04;;;;;;;;;;;13.90;99.90;;;;;;5085371;28;20349;-75
2021/09/29 05:12:32;;;;;;;;;;;13.90;99.90;;;;;;5053754;28;19919;-73
2021/09/29 05:14:58;;;;;;;;;;;13.90;99.90;;;;;;5043914;28;19909;-73
2021/09/29 05:17:24;;;;;;;;;;;13.90;99.90;;;;;;5084794;28;19920;-73
2021/09/29 05:19:50;;;;;;;;;;;13.90;99.90;;;;;;5052334;28;20035;-73
2021/09/29 05:22:16;;;;;;;;;;;13.90;99.90;;;;;;5053178;28;19921;-73
2021/09/29 05:24:41;;;;;;;;;;;13.90;99.90;;;;;;5048864;28;19920;-73
2021/09/29 05:27:07;;;;;;;;;;;13.90;99.90;;;;;;5085375;28;19920;-73
2021/09/29 05:29:34;;;;;;;;;;;14.00;99.90;;;;;;5053802;28;19913;-73
2021/09/29 05:31:59;;;;;;;;;;;14.00;99.90;;;;;;5068058;28;19966;-73
2021/09/29 05:34:25;;;;;;;;;;;14.00;99.90;;;;;;5067798;28;20428;-73
2021/09/29 05:36:50;;;;;;;;;;;13.90;99.90;;;;;;5068896;28;20412;-73
2021/09/29 05:39:16;;;;;;;;;;;13.90;99.90;;;;;;5068867;28;19912;-73
2021/09/29 05:41:42;;;;;;;;;;;13.90;99.90;;;;;;5054274;28;19917;-73
2021/09/29 05:44:07;;;;;;;;;;;13.90;99.90;;;;;;5043533;28;19936;-73
2021/09/29 05:46:33;;;;;;;;;;;13.90;99.90;;;;;;5053797;28;19919;-74
2021/09/29 05:48:58;;;;;;;;;;;14.00;99.90;;;;;;5070979;28;19913;-73
2021/09/29 05:51:24;;;;;;;;;;;14.00;99.90;;;;;;5067073;28;19919;-74
2021/09/29 05:53:50;;;;;;;;;;;14.00;99.90;;;;;;5100388;28;19923;-73
2021/09/29 05:56:16;;;;;;;;;;;14.00;99.90;;;;;;5097180;28;19913;-74
2021/09/29 05:58:42;;;;;;;;;;;13.90;99.90;;;;;;5102415;28;20023;-74
2021/09/29 06:01:07;;;;;;;;;;;13.90;99.90;;;;;;5069778;28;19943;-74
2021/09/29 06:03:33;;;;;;;;;;;14.00;99.90;;;;;;5061799;28;19913;-74
2021/09/29 06:05:58;;;;;;;;;;;13.90;99.90;;;;;;5068636;28;20308;-73
2021/09/29 06:08:24;;;;;;;;;;;14.00;99.90;;;;;;5068862;28;19913;-73
2021/09/29 06:10:50;;;;;;;;;;;14.00;99.90;;;;;;5068613;28;19913;-74
2021/09/29 06:13:15;;;;;;;;;;;14.00;99.90;;;;;;5097998;28;19913;-73
2021/09/29 06:15:41;;;;;;;;;;;14.10;99.90;;;;;;5095000;28;19916;-72
2021/09/29 06:18:12;;;;;;;;;;;14.00;99.90;;;;;;5075140;28;19984;-76
2021/09/29 06:20:41;;;;;;;;;;;14.00;99.90;;;;;;5077810;28;19924;-74
2021/09/29 06:23:06;;;;;;;;;;;14.10;99.90;;;;;;5115506;28;19944;-75
2021/09/29 06:25:32;;;;;;;;;;;14.10;99.90;;;;;;5079921;28;19932;-74
2021/09/29 06:27:57;;;;;;;;;;;14.10;99.90;;;;;;5079618;28;19925;-72
2021/09/29 06:30:23;;;;;;;;;;;14.10;99.90;;;;;;5079406;28;19923;-74
2021/09/29 06:32:48;;;;;;;;;;;14.20;99.90;;;;;;5079347;28;19921;-72
2021/09/29 06:35:14;;;;;;;;;;;14.20;99.90;;;;;;5065502;28;20395;-72
2021/09/29 06:37:41;;;;;;;;;;;14.30;99.90;;;;;;5059005;28;19913;-72
2021/09/29 06:40:08;;;;;;;;;;;14.30;99.90;;;;;;5059309;28;19924;-73
2021/09/29 06:42:34;;;;;;;;;;;14.40;99.90;;;;;;5091238;28;19919;-73
2021/09/29 06:44:59;;;;;;;;;;;14.40;99.90;;;;;;5061264;28;19912;-73
2021/09/29 06:47:25;;;;;;;;;;;14.40;99.90;;;;;;5090903;28;20387;-75
2021/09/29 06:49:50;;;;;;;;;;;14.40;99.90;;;;;;5054856;28;19967;-74
2021/09/29 06:52:16;;;;;;;;;;;14.40;99.90;;;;;;5089611;28;19958;-73
2021/09/29 06:54:41;;;;;;;;;;;14.40;99.90;;;;;;5054247;28;19923;-70
2021/09/29 06:57:07;;;;;;;;;;;14.30;99.90;;;;;;5086067;28;20384;-74
2021/09/29 06:59:35;;;;;;;;;;;14.30;99.90;;;;;;5055640;28;19917;-73
2021/09/29 07:02:00;;;;;;;;;;;14.30;99.90;;;;;;5056618;28;19920;-72
2021/09/29 07:04:26;;;;;;;;;;;14.40;99.90;;;;;;5056318;28;20361;-73
2021/09/29 07:06:51;;;;;;;;;;;14.40;99.90;;;;;;5056089;28;21292;-72
2021/09/29 07:09:17;;;;;;;;;;;14.30;99.90;;;;;;5055141;28;20433;-71
2021/09/29 07:11:42;;;;;;;;;;;14.30;99.90;;;;;;5071223;28;20015;-72
2021/09/29 07:14:08;;;;;;;;;;;14.40;99.90;;;;;;5067460;28;19959;-72
2021/09/29 07:16:33;;;;;;;;;;;14.30;99.90;;;;;;5056114;28;19974;-74
2021/09/29 07:19:02;;;;;;;;;;;14.30;99.90;;;;;;5051760;28;19975;-73
2021/09/29 07:21:28;;;;;;;;;;;14.20;99.90;;;;;;5077564;28;19921;-73
2021/09/29 07:23:53;;;;;;;;;;;14.20;99.90;;;;;;5056520;28;19919;-72
2021/09/29 07:26:19;;;;;;;;;;;14.20;99.90;;;;;;5055804;28;19913;-74
2021/09/29 07:28:44;;;;;;;;;;;14.10;99.90;;;;;;5055126;28;19966;-73
2021/09/29 07:31:10;;;;;;;;;;;14.10;99.90;;;;;;5054288;28;20296;-72
2021/09/29 07:33:36;;;;;;;;;;;14.10;99.90;;;;;;5055554;28;19920;-73
2021/09/29 07:36:02;;;;;;;;;;;14.00;99.90;;;;;;5086505;28;19936;-73
2021/09/29 07:38:28;;;;;;;;;;;13.90;99.90;;;;;;5055581;28;19913;-73
2021/09/29 07:40:54;;;;;;;;;;;13.90;99.90;;;;;;5056281;28;19924;-76
2021/09/29 07:43:20;;;;;;;;;;;13.80;99.90;;;;;;5055478;28;19913;-74
2021/09/29 07:45:45;;;;;;;;;;;13.80;99.90;;;;;;5055248;28;20274;-73
2021/09/29 07:48:11;;;;;;;;;;;13.70;99.90;;;;;;5054721;28;19913;-73
2021/09/29 07:50:36;;;;;;;;;;;13.80;99.90;;;;;;5054004;28;19921;-72
2021/09/29 07:53:02;;;;;;;;;;;13.80;99.90;;;;;;5087946;28;20316;-71
2021/09/29 07:55:27;;;;;;;;;;;13.80;99.90;;;;;;5070346;28;20352;-72
2021/09/29 07:57:53;;;;;;;;;;;13.80;99.90;;;;;;5040217;28;19919;-74
2021/09/29 08:00:19;;;;;;;;;;;13.70;99.90;;;;;;5069320;28;19924;-74
2021/09/29 08:02:44;;;;;;;;;;;13.70;99.90;;;;;;5054520;28;19913;-72
2021/09/29 08:05:11;;;;;;;;;;;13.70;99.90;;;;;;5055082;28;19936;-74
2021/09/29 08:07:38;;;;;;;;;;;13.70;99.90;;;;;;5053856;28;19917;-74
2021/09/29 08:10:04;;;;;;;;;;;13.70;99.90;;;;;;5070681;28;20003;-73
2021/09/29 08:12:29;;;;;;;;;;;13.70;99.90;;;;;;5054193;28;19939;-74
2021/09/29 08:14:55;;;;;;;;;;;13.70;99.90;;;;;;5054582;28;19943;-75
2021/09/29 08:17:20;;;;;;;;;;;13.70;99.90;;;;;;5051842;28;19935;-74
2021/09/29 08:19:46;;;;;;;;;;;13.70;99.90;;;;;;5051862;28;20019;-73
2021/09/29 08:22:12;;;;;;;;;;;13.70;99.90;;;;;;5054487;28;19917;-72
2021/09/29 08:24:52;;;;;;;;;;;13.70;99.90;;;;;;5054403;28;19913;-72
2021/09/29 08:27:29;;;;;;;;;;;13.60;99.90;;;;;;5054772;28;19913;-72
2021/09/29 08:32:43;;;;;;;;;;;13.40;99.90;;;;;;5054738;28;19917;-72
2021/09/29 08:37:56;;;;;;;;;;;13.40;99.90;;;;;;5034704;28;20424;-72
2021/09/29 08:43:33;;;;;;;;;;;13.20;99.90;;;;;;5050177;28;19920;-72
2021/09/29 08:46:02;;;;;;;;;;;13.00;99.90;;;;;;5054380;28;19919;-72
2021/09/29 08:56:18;;;;;;;;;;;12.90;99.90;;;;;;5052848;28;19920;-74
2021/09/29 09:17:25;;;;;;;;;;;12.90;99.90;;;;;;5072185;28;19917;-73
2021/09/29 09:19:50;;;;;;;;;;;12.90;99.90;;;;;;5059412;28;19967;-73
2021/09/29 09:22:16;;;;;;;;;;;12.90;99.90;;;;;;5073970;28;19918;-75
2021/09/29 09:24:52;;;;;;;;;;;13.00;99.90;;;;;;5081965;28;22146;-75
2021/09/29 09:27:18;;;;;;;;;;;13.00;99.90;;;;;;5074355;28;19956;-73
2021/09/29 09:29:48;;;;;;;;;;;13.00;99.90;;;;;;5077451;28;19908;-74
2021/09/29 09:32:14;;;;;;;;;;;13.00;99.90;;;;;;5077704;28;19944;-75
2021/09/29 09:34:40;;;;;;;;;;;12.90;99.90;;;;;;5075410;28;19968;-74
2021/09/29 09:37:12;;;;;;;;;;;13.00;99.90;;;;;;5077414;28;19965;-73
2021/09/29 09:39:38;;;;;;;;;;;13.00;99.90;;;;;;5087817;28;19992;-71
2021/09/29 09:42:06;;;;;;;;;;;13.10;99.90;;;;;;5069333;28;19924;-72
2021/09/29 09:44:34;;;;;;;;;;;13.10;99.90;;;;;;5058336;28;20019;-71
2021/09/29 09:47:06;;;;;;;;;;;13.10;99.90;;;;;;5074425;28;19920;-73
2021/09/29 09:49:42;;;;;;;;;;;13.10;99.90;;;;;;5056628;28;20019;-73
2021/09/29 09:52:08;;;;;;;;;;;13.10;99.90;;;;;;5056286;28;19913;-73
2021/09/29 09:54:38;;;;;;;;;;;13.10;99.90;;;;;;5069550;28;20261;-73
2021/09/29 09:57:17;;;;;;;;;;;13.10;99.90;;;;;;5053893;28;19912;-73
2021/09/29 09:59:50;;;;;;;;;;;13.10;99.90;;;;;;5083377;28;19967;-73
2021/09/29 10:02:15;;;;;;;;;;;13.00;99.90;;;;;;5082757;28;19936;-74
2021/09/29 10:04:41;;;;;;;;;;;13.00;99.90;;;;;;5053468;28;19913;-74
2021/09/29 10:07:07;;;;;;;;;;;13.10;99.90;;;;;;5053180;28;19912;-74
2021/09/29 10:10:11;;;;;;;;;;;13.00;99.90;;;;;;5067713;28;19967;-72
2021/09/29 10:15:30;;;;;;;;;;;12.90;99.90;;;;;;5049840;28;20011;-73
2021/09/29 10:23:58;;;;;;;;;;;12.50;99.90;;;;;;5000492;28;20282;-73
2021/09/29 10:26:25;;;;;;;;;;;12.50;99.90;;;;;;4986765;28;19924;-74
2021/09/29 10:29:02;;;;;;;;;;;12.50;99.90;;;;;;5004535;28;20338;-73
2021/09/29 10:34:02;;;;;;;;;;;12.30;99.90;;;;;;5003479;28;19914;-72
2021/09/29 10:36:48;;;;;;;;;;;12.10;99.90;;;;;;5002573;28;19920;-75
2021/09/29 10:42:08;;;;;;;;;;;12.00;99.90;;;;;;5010280;28;19921;-73
2021/09/29 10:47:34;;;;;;;;;;;12.00;99.90;;;;;;5008866;28;20400;-73
2021/09/29 11:12:06;;;;;;;;;;;12.30;99.90;;;;;;5049212;28;19921;-73
2021/09/29 11:39:26;;;;;;;;;;;12.90;99.90;;;;;;5048210;28;19921;-74
2021/09/29 12:09:29;;;;;;;;;;;14.00;99.90;;;;;;5068282;28;19947;-75
2021/09/29 12:12:05;;;;;;;;;;;14.10;99.90;;;;;;5101914;28;19924;-76
2021/09/29 12:14:34;;;;;;;;;;;14.20;99.90;;;;;;5069130;28;19921;-76
2021/09/29 12:16:59;;;;;;;;;;;14.30;99.90;;;;;;5070201;28;19951;-74
2021/09/29 12:19:31;;;;;;;;;;;14.30;99.90;;;;;;5069580;28;19951;-76
2021/09/29 12:21:58;;;;;;;;;;;14.50;99.90;;;;;;5068731;28;20255;-76
2021/09/29 12:24:30;;;;;;;;;;;14.60;99.90;;;;;;5081616;28;19913;-76
2021/09/29 12:26:57;;;;;;;;;;;14.50;99.90;;;;;;5072768;28;19912;-75
2021/09/29 12:32:16;;;;;;;;;;;13.90;99.90;;;;;;5051107;28;20297;-75
2021/09/29 12:35:00;;;;;;;;;;;13.80;99.90;;;;;;5050662;28;19971;-75
2021/09/29 12:37:25;;;;;;;;;;;13.80;99.90;;;;;;5054387;28;19920;-74
2021/09/29 12:39:54;;;;;;;;;;;13.80;99.90;;;;;;5069310;28;20340;-74
2021/09/29 12:42:27;;;;;;;;;;;14.10;99.90;;;;;;5047956;28;19913;-74
2021/09/29 12:44:52;;;;;;;;;;;14.40;99.90;;;;;;5043077;28;19913;-73
2021/09/29 12:47:35;;;;;;;;;;;14.80;99.90;;;;;;5051015;28;20277;-74
2021/09/29 12:50:09;;;;;;;;;;;15.00;99.90;;;;;;5045192;28;19989;-74
2021/09/29 12:52:37;;;;;;;;;;;14.70;99.90;;;;;;5045555;28;20068;-73
2021/09/29 12:55:04;;;;;;;;;;;14.70;99.90;;;;;;5078223;28;19919;-74
2021/09/29 12:57:29;;;;;;;;;;;15.00;99.90;;;;;;5046864;28;19943;-72
2021/09/29 12:59:56;;;;;;;;;;;14.90;99.90;;;;;;5053665;28;19916;-73
2021/09/29 13:02:22;;;;;;;;;;;14.70;99.90;;;;;;5051737;28;19921;-75
2021/09/29 13:04:47;;;;;;;;;;;14.80;99.90;;;;;;5051082;28;19913;-73
2021/09/29 13:07:13;;;;;;;;;;;14.90;99.90;;;;;;5053354;28;19913;-73
2021/09/29 13:09:39;;;;;;;;;;;15.00;99.90;;;;;;5053596;28;20011;-74
2021/09/29 13:12:04;;;;;;;;;;;15.20;99.90;;;;;;5085751;28;20007;-74
2021/09/29 13:14:31;;;;;;;;;;;15.60;99.90;;;;;;5053683;28;19966;-73
2021/09/29 13:16:57;;;;;;;;;;;16.00;99.90;;;;;;5051933;28;20360;-74
2021/09/29 13:19:39;;;;;;;;;;;16.30;99.90;;;;;;5049870;28;19975;-74
2021/09/29 13:22:13;;;;;;;;;;;16.50;99.90;;;;;;5038411;28;19920;-74
2021/09/29 13:24:57;;;;;;;;;;;16.30;99.90;;;;;;5068928;28;19913;-74
2021/09/29 13:38:02;;;;;;;;;;;16.30;99.90;;;;;;5022333;28;19924;-72
2021/09/29 13:40:27;;;;;;;;;;;16.40;99.90;;;;;;5053571;28;19916;-72
2021/09/29 13:42:53;;;;;;;;;;;16.00;99.90;;;;;;5053202;28;20306;-73
2021/09/29 13:45:18;;;;;;;;;;;15.60;99.90;;;;;;5039669;28;19913;-75
2021/09/29 13:47:43;;;;;;;;;;;15.50;99.90;;;;;;5071791;28;20364;-72
2021/09/29 13:50:11;;;;;;;;;;;15.60;99.90;;;;;;5051989;28;20015;-74
2021/09/29 13:52:36;;;;;;;;;;;15.80;99.90;;;;;;5068649;28;19919;-74
2021/09/29 13:55:06;;;;;;;;;;;15.70;99.90;;;;;;5068692;28;19913;-73
2021/09/29 13:57:43;;;;;;;;;;;14.80;99.90;;;;;;5050957;28;19971;-75
2021/09/29 14:29:53;;;;;;;;;;;13.50;99.90;;;;;;5040735;28;19959;-75
2021/09/29 14:32:21;;;;;;;;;;;13.50;99.90;;;;;;5073325;28;20282;-74
2021/09/29 14:34:47;;;;;;;;;;;13.50;99.90;;;;;;5040167;28;19979;-74
2021/09/29 14:37:13;;;;;;;;;;;13.50;99.90;;;;;;5039974;28;21533;-73
2021/09/29 14:39:39;;;;;;;;;;;13.60;99.90;;;;;;5076464;28;20369;-75
2021/09/29 14:42:04;;;;;;;;;;;13.60;99.90;;;;;;5044300;28;19925;-74
2021/09/29 14:44:30;;;;;;;;;;;13.60;99.90;;;;;;5056830;28;19945;-75
2021/09/29 14:46:56;;;;;;;;;;;13.80;99.90;;;;;;5047141;28;20007;-76
2021/09/29 14:49:21;;;;;;;;;;;14.20;99.90;;;;;;5082845;28;19983;-77
2021/09/29 14:51:47;;;;;;;;;;;14.10;99.90;;;;;;5082591;28;21192;-73
2021/09/29 14:54:12;;;;;;;;;;;14.10;99.90;;;;;;5081671;28;19913;-74
2021/09/29 14:56:38;;;;;;;;;;;13.90;99.90;;;;;;5048793;28;19913;-75
2021/09/29 14:59:04;;;;;;;;;;;13.40;99.90;;;;;;5081161;28;19963;-73
2021/09/29 15:01:30;;;;;;;;;;;12.80;99.90;;;;;;5066546;28;20327;-73
2021/09/29 15:03:57;;;;;;;;;;;12.40;99.90;;;;;;5049788;28;20400;-73
2021/09/29 15:06:25;;;;;;;;;;;12.20;99.90;;;;;;5050641;28;20000;-74
2021/09/29 15:08:50;;;;;;;;;;;12.10;99.90;;;;;;5094109;28;19913;-73
2021/09/29 15:11:16;;;;;;;;;;;12.10;99.90;;;;;;5097612;28;19919;-73
2021/09/29 15:13:47;;;;;;;;;;;12.10;99.90;;;;;;5064041;28;19931;-76
2021/09/29 15:16:33;;;;;;;;;;;12.10;99.90;;;;;;5070163;28;20009;-77
2021/09/29 15:19:12;;;;;;;;;;;12.20;99.90;;;;;;5067638;28;19912;-78
2021/09/29 15:46:46;;;;;;;;;;;11.60;99.90;;;;;;5059408;28;20044;-76
2021/09/29 15:51:51;;;;;;;;;;;11.50;99.90;;;;;;5056856;28;19921;-76
2021/09/29 15:54:22;;;;;;;;;;;11.50;99.90;;;;;;5088876;28;19921;-76
2021/09/29 15:59:41;;;;;;;;;;;11.60;99.90;;;;;;5055041;28;19913;-75
2021/09/29 16:10:53;;;;;;;;;;;11.70;99.90;;;;;;5049297;28;19966;-75
2021/09/29 16:31:17;;;;;;;;;;;12.20;99.90;;;;;;5043657;28;20020;-75
2021/09/29 16:36:16;;;;;;;;;;;12.10;99.90;;;;;;5048816;28;19912;-76
2021/09/29 16:38:44;;;;;;;;;;;12.10;99.90;;;;;;5053280;28;19917;-73
2021/09/29 16:41:10;;;;;;;;;;;12.20;99.90;;;;;;5050951;28;19917;-74
2021/09/29 16:43:35;;;;;;;;;;;12.20;99.90;;;;;;5051749;28;19959;-73
2021/09/29 16:46:01;;;;;;;;;;;12.20;99.90;;;;;;5085893;28;19917;-74
2021/09/29 16:48:28;;;;;;;;;;;12.20;99.90;;;;;;5060483;28;19917;-73
2021/09/29 16:53:32;;;;;;;;;;;12.20;99.90;;;;;;5051724;28;19920;-75
2021/09/29 16:55:59;;;;;;;;;;;12.20;99.90;;;;;;5050415;28;19920;-76
2021/09/29 16:58:29;;;;;;;;;;;12.20;99.90;;;;;;5051134;28;19913;-73
2021/09/29 17:00:56;;;;;;;;;;;12.20;99.90;;;;;;5050775;28;20327;-74
2021/09/29 17:03:23;;;;;;;;;;;12.20;99.90;;;;;;5068831;28;19913;-74
2021/09/29 17:05:49;;;;;;;;;;;12.20;99.90;;;;;;5052150;28;19955;-74
2021/09/29 17:08:15;;;;;;;;;;;12.20;99.90;;;;;;5051452;28;19913;-73
2021/09/29 17:10:41;;;;;;;;;;;12.20;99.90;;;;;;5053586;28;20110;-74
2021/09/29 17:13:06;;;;;;;;;;;12.10;99.90;;;;;;5053169;28;19913;-74
2021/09/29 17:15:33;;;;;;;;;;;12.10;99.90;;;;;;5054863;28;19917;-76
2021/09/29 17:17:58;;;;;;;;;;;12.10;99.90;;;;;;5049287;28;19913;-74
2021/09/29 17:20:24;;;;;;;;;;;11.90;99.90;;;;;;5052374;28;20277;-74
2021/09/29 17:22:50;;;;;;;;;;;11.80;99.90;;;;;;5052271;28;19958;-74
2021/09/29 17:25:15;;;;;;;;;;;11.80;99.90;;;;;;5085349;28;19909;-74
2021/09/29 17:27:41;;;;;;;;;;;11.80;99.90;;;;;;5052527;28;19921;-74
2021/09/29 17:30:09;;;;;;;;;;;11.80;99.90;;;;;;5084255;28;19913;-74
2021/09/29 17:35:12;;;;;;;;;;;11.80;99.90;;;;;;5053377;28;19979;-74
2021/09/29 17:53:45;;;;;;;;;;;12.00;99.90;;;;;;5054311;28;19983;-73
2021/09/29 17:56:11;;;;;;;;;;;12.00;99.90;;;;;;5085611;28;19916;-73
2021/09/29 17:58:36;;;;;;;;;;;12.00;99.90;;;;;;5051125;28;19920;-73
2021/09/29 18:01:02;;;;;;;;;;;12.00;99.90;;;;;;5068991;28;19923;-73
2021/09/29 18:03:42;;;;;;;;;;;12.00;99.90;;;;;;5072600;28;19940;-74
2021/09/29 18:08:34;;;;;;;;;;;11.90;99.90;;;;;;5068830;28;19913;-75
2021/09/29 18:11:00;;;;;;;;;;;11.90;99.90;;;;;;5070731;28;19913;-75
2021/09/29 18:13:26;;;;;;;;;;;11.90;99.90;;;;;;5071401;28;19920;-73
2021/09/29 18:15:51;;;;;;;;;;;11.90;99.90;;;;;;5071476;28;19909;-75
2021/09/29 18:18:19;;;;;;;;;;;11.90;99.90;;;;;;5078983;28;19932;-73
2021/09/29 18:20:45;;;;;;;;;;;11.90;99.90;;;;;;5077573;28;19925;-73
2021/09/29 18:23:10;;;;;;;;;;;12.00;99.90;;;;;;5080172;28;19928;-74
2021/09/29 18:25:38;;;;;;;;;;;11.90;99.90;;;;;;5077293;28;19897;-74
2021/09/29 18:28:03;;;;;;;;;;;12.00;99.90;;;;;;5078684;28;19927;-73
2021/09/29 18:30:29;;;;;;;;;;;12.00;99.90;;;;;;5078187;28;19913;-73
2021/09/29 18:32:57;;;;;;;;;;;11.90;99.90;;;;;;5077016;28;20010;-72